Terminal Aerodrome Forecast
Issued by NWS Tampa Bay Area, FL

Home | Current Version | Previous Version | Text Only | Print | Product List | Glossary On
Versions: 1 2 3 4 5 6 7 8 9 10 11 12 13 14 15 16 17 18 19
288
FTUS42 KTBW 081120
TAFFMY
TAF
KFMY 081120Z 0812/0912 01006KT P6SM SCT060 BKN120
     FM081400 02007KT P6SM SCT025 BKN050 BKN100
     FM081800 01009KT P6SM BKN045 OVC080
     FM090200 03011KT P6SM BKN060=

USA.gov is the U.S. government's official web portal to all federal, state and local government web resources and services.